Terminal Aerodrome Forecast
Issued by NWS

Home | Current Version | Previous Version | Text Only | Print | Product List | Glossary On
Versions: 1 2 3 4 5 6 7 8 9 10 11 12 13 14 15 16 17 18 19 20 21 22 23 24 25 26 27 28 29 30 31 32
433
FTUS42 KCAE 261528 AAB
TAFOGB
TAF AMD
KOGB 261528Z 2615/2712 05004KT P6SM SCT006 OVC015
      TEMPO 2615/2616 BKN006
     FM261700 09005KT P6SM SCT025
     FM262000 12004KT P6SM VCSH BKN040
     FM270900 VRB03KT 2SM BR BKN008=

USA.gov is the U.S. government's official web portal to all federal, state and local government web resources and services.